Time;durP1;ratioP1;P1;durP2;ratioP2;P2;SDS_P1;SDS_P2;PMS_P1;PMS_P2;Temp;Humidity;BMP_temperature;BMP_pressure;BME280_temperature;BME280_humidity;BME280_pressure;Samples;Min_cycle;Max_cycle;Signal;HPM_P1;HPM_P2
2022/09/25 00:00:42;;;;;;;132.07;41.55;;;;;;;14.08;98.90;101017.84;5055849;28;20032;-73
2022/09/25 00:03:08;;;;;;;130.10;44.30;;;;;;;14.11;99.25;101022.97;5059062;28;20115;-72
2022/09/25 00:05:35;;;;;;;114.57;38.47;;;;;;;14.17;98.92;101019.53;5080140;28;20020;-72
2022/09/25 00:08:02;;;;;;;114.22;41.40;;;;;;;14.21;99.03;101018.13;5056162;28;20112;-73
2022/09/25 00:10:28;;;;;;;129.85;44.88;;;;;;;14.02;99.80;101024.03;5082318;28;20154;-73
2022/09/25 00:12:54;;;;;;;177.02;53.00;;;;;;;13.99;99.67;101018.94;5058022;28;20035;-73
2022/09/25 00:15:19;;;;;;;139.30;46.47;;;;;;;14.01;99.71;101022.31;5066450;28;20024;-73
2022/09/25 00:17:45;;;;;;;163.07;52.90;;;;;;;14.03;99.52;101020.28;5073459;28;20027;-74
2022/09/25 00:20:10;;;;;;;151.82;48.28;;;;;;;14.10;99.27;101015.81;5056023;28;20032;-74
2022/09/25 00:22:36;;;;;;;124.43;44.13;;;;;;;14.11;99.05;101006.63;5075706;28;20453;-75
2022/09/25 00:25:02;;;;;;;133.23;45.30;;;;;;;13.90;99.33;101014.56;5056898;28;20035;-73
2022/09/25 00:27:27;;;;;;;119.70;44.47;;;;;;;13.91;99.39;101010.81;5090442;28;20024;-75
2022/09/25 00:29:53;;;;;;;116.75;43.67;;;;;;;13.83;99.65;101012.53;5063453;28;20023;-75
2022/09/25 00:32:18;;;;;;;136.35;48.83;;;;;;;13.84;99.82;101016.94;5062875;28;20029;-73
2022/09/25 00:34:43;;;;;;;133.90;45.33;;;;;;;13.81;99.68;101017.28;5055293;28;20024;-74
2022/09/25 00:37:09;;;;;;;105.78;42.70;;;;;;;13.79;100.00;101007.59;5073116;28;20137;-73
2022/09/25 00:39:34;;;;;;;163.95;53.60;;;;;;;13.99;99.86;101008.88;5072889;28;20111;-73
2022/09/25 00:42:00;;;;;;;154.45;51.53;;;;;;;13.96;99.53;101008.41;5055379;28;20400;-74
2022/09/25 00:44:58;;;;;;;118.47;44.28;;;;;;;14.01;99.55;101011.41;5073212;28;20393;-74
2022/09/25 00:47:35;;;;;;;147.80;48.22;;;;;;;13.98;99.84;101017.22;5055325;28;20063;-74
2022/09/25 00:50:03;;;;;;;116.82;42.60;;;;;;;14.11;98.90;101012.06;5071093;28;20082;-74
2022/09/25 00:52:30;;;;;;;151.05;49.85;;;;;;;14.01;99.11;101012.25;5080793;28;20054;-73
2022/09/25 00:55:04;;;;;;;146.02;47.55;;;;;;;14.07;99.22;101010.72;5092295;28;20016;-72
2022/09/25 00:57:32;;;;;;;125.97;43.42;;;;;;;14.10;98.86;101010.38;5064182;28;20055;-74
2022/09/25 01:00:06;;;;;;;178.77;53.55;;;;;;;14.15;98.85;101013.41;5092916;28;20028;-74
2022/09/25 01:02:38;;;;;;;138.50;47.80;;;;;;;14.18;98.34;101007.59;5065424;28;20043;-74
2022/09/25 01:05:14;;;;;;;112.07;43.58;;;;;;;14.13;98.91;101010.00;5074120;28;20164;-74
2022/09/25 01:07:42;;;;;;;93.25;39.35;;;;;;;14.07;98.53;101008.00;5075155;28;20049;-74
2022/09/25 01:10:09;;;;;;;103.00;41.53;;;;;;;14.04;99.05;101011.94;5074708;28;20024;-74
2022/09/25 01:12:37;;;;;;;109.43;41.60;;;;;;;13.97;99.11;101004.66;5075051;28;20030;-74
2022/09/25 01:15:06;;;;;;;98.90;40.63;;;;;;;13.87;99.39;101009.44;5068063;28;20035;-74
2022/09/25 01:17:47;;;;;;;102.25;42.35;;;;;;;13.78;99.92;101012.22;5055457;28;20028;-73
2022/09/25 01:20:50;;;;;;;111.32;46.03;;;;;;;13.89;99.52;101012.84;5074108;28;20024;-74
2022/09/25 01:23:40;;;;;;;109.78;45.05;;;;;;;14.00;98.97;101004.28;5072243;28;20029;-75
2022/09/25 01:26:35;;;;;;;113.30;46.28;;;;;;;13.93;99.29;101014.19;5070778;28;20028;-74
2022/09/25 01:29:10;;;;;;;124.13;48.38;;;;;;;13.88;99.29;101008.41;5073582;28;20035;-73
2022/09/25 01:31:41;;;;;;;123.22;46.45;;;;;;;14.09;98.96;101008.69;5067112;28;20036;-74
2022/09/25 01:34:25;;;;;;;96.05;41.60;;;;;;;14.00;99.15;101009.72;5073602;28;20494;-73
2022/09/25 01:37:37;;;;;;;132.95;49.00;;;;;;;13.98;99.69;101004.47;5083895;28;20036;-74
2022/09/25 01:40:12;;;;;;;138.85;48.13;;;;;;;13.94;99.50;101010.44;5050270;28;20070;-74
2022/09/25 01:42:51;;;;;;;109.75;40.72;;;;;;;13.71;100.00;101008.50;5066005;28;20035;-74
2022/09/25 01:45:41;;;;;;;116.30;43.28;;;;;;;13.68;100.00;101005.25;5064388;28;20016;-74
2022/09/25 01:48:10;;;;;;;95.40;38.72;;;;;;;13.83;100.00;101004.38;5063053;28;20047;-72
2022/09/25 01:50:43;;;;;;;118.82;41.10;;;;;;;13.81;100.00;101008.28;5081378;28;20020;-73
2022/09/25 01:53:14;;;;;;;108.68;39.97;;;;;;;13.77;100.00;101010.50;5072172;28;20035;-72
2022/09/25 01:55:47;;;;;;;145.18;46.63;;;;;;;13.85;100.00;101007.75;5060879;28;20114;-74
2022/09/25 01:58:23;;;;;;;124.30;40.53;;;;;;;13.60;100.00;101003.41;5083696;28;20059;-74
2022/09/25 02:00:55;;;;;;;145.57;43.30;;;;;;;13.53;100.00;101003.28;5076051;28;20028;-73
2022/09/25 02:03:29;;;;;;;;;;;;;;;13.72;100.00;101001.19;5057109;28;20051;-75
2022/09/25 02:06:00;;;;;;;136.27;42.28;;;;;;;13.62;100.00;101001.38;5061900;28;19908;-74
2022/09/25 02:08:31;;;;;;;138.27;43.05;;;;;;;13.66;100.00;101008.16;5056134;28;20029;-75
2022/09/25 02:11:01;;;;;;;123.75;41.40;;;;;;;13.75;99.94;100998.94;5058457;28;20110;-75
2022/09/25 02:13:36;;;;;;;110.75;39.15;;;;;;;13.72;99.73;101002.03;5075501;28;20110;-74
2022/09/25 02:16:06;;;;;;;132.15;41.53;;;;;;;13.42;100.00;101002.78;5090491;28;20020;-74
2022/09/25 02:21:27;;;;;;;123.43;41.95;;;;;;;13.68;100.00;101000.66;5091594;28;20028;-74
2022/09/25 02:24:28;;;;;;;163.00;48.05;;;;;;;13.60;100.00;101008.00;5090933;28;20085;-74
2022/09/25 02:26:55;;;;;;;151.05;46.60;;;;;;;13.52;100.00;101000.72;5073739;28;20061;-73
2022/09/25 02:29:20;;;;;;;167.15;49.13;;;;;;;13.52;100.00;101006.16;5077246;28;20464;-74
2022/09/25 02:31:52;;;;;;;163.65;47.63;;;;;;;13.66;100.00;101004.59;5070664;28;20074;-74
2022/09/25 02:34:17;;;;;;;;;;;;;;;13.65;100.00;101001.03;5054345;28;20039;-73
2022/09/25 02:36:43;;;;;;;128.50;41.42;;;;;;;13.69;100.00;101001.50;5064299;28;19912;-73
2022/09/25 02:39:10;;;;;;;143.07;42.70;;;;;;;13.74;100.00;100991.81;5064601;28;20119;-73
2022/09/25 02:41:47;;;;;;;138.20;42.63;;;;;;;13.71;100.00;101000.34;5076625;28;20055;-74
2022/09/25 02:44:27;;;;;;;163.55;47.17;;;;;;;13.83;100.00;100998.94;5073268;28;20059;-72
2022/09/25 02:47:02;;;;;;;147.85;46.30;;;;;;;13.85;100.00;101001.47;5082711;28;20040;-72
2022/09/25 02:49:43;;;;;;;140.25;43.20;;;;;;;13.79;100.00;100997.56;5053428;28;20116;-72
2022/09/25 02:52:15;;;;;;;179.20;52.95;;;;;;;13.76;100.00;100997.94;5063435;28;20413;-72
2022/09/25 02:54:52;;;;;;;134.38;42.15;;;;;;;13.79;100.00;100997.56;5057516;28;20056;-71
2022/09/25 02:57:31;;;;;;;111.57;41.65;;;;;;;13.72;100.00;101002.03;5065921;28;20063;-71
2022/09/25 03:00:02;;;;;;;119.10;41.70;;;;;;;13.77;100.00;101001.50;5072864;28;20099;-71
2022/09/25 03:02:29;;;;;;;139.73;46.85;;;;;;;13.79;100.00;101003.00;5079412;28;20530;-72
2022/09/25 03:04:56;;;;;;;99.72;39.47;;;;;;;13.75;100.00;100995.38;5060935;28;20020;-71
2022/09/25 03:07:22;;;;;;;105.03;42.40;;;;;;;13.69;100.00;101002.38;5076598;28;20024;-72
2022/09/25 03:09:50;;;;;;;105.60;41.97;;;;;;;13.66;100.00;100991.84;5057772;28;20088;-71
2022/09/25 03:12:16;;;;;;;114.28;42.83;;;;;;;13.71;100.00;100994.88;5064644;28;20435;-72
2022/09/25 03:14:42;;;;;;;104.65;38.72;;;;;;;13.73;100.00;100998.28;5057732;28;20017;-71
2022/09/25 03:17:09;;;;;;;99.22;39.72;;;;;;;13.80;100.00;100993.81;5063328;28;20111;-71
2022/09/25 03:19:34;;;;;;;107.55;41.17;;;;;;;13.69;100.00;100991.50;5060624;28;20444;-70
2022/09/25 03:22:00;;;;;;;132.93;47.58;;;;;;;13.57;100.00;100990.19;5084572;28;20039;-72
2022/09/25 03:24:26;;;;;;;124.85;48.50;;;;;;;13.51;100.00;100993.59;5084770;28;20020;-70
2022/09/25 03:26:52;;;;;;;93.68;43.10;;;;;;;13.62;100.00;101001.38;5079693;28;20031;-70
2022/09/25 03:29:19;;;;;;;119.68;47.35;;;;;;;13.73;100.00;100992.84;5066447;28;20073;-71
2022/09/25 03:32:00;;;;;;;129.60;50.15;;;;;;;13.61;100.00;100991.50;5088643;22;20119;-75
2022/09/25 03:35:12;;;;;;;141.13;49.60;;;;;;;13.57;100.00;100998.34;5066886;28;20067;-74
2022/09/25 03:37:50;;;;;;;135.82;52.72;;;;;;;13.61;100.00;100988.78;5074158;28;20033;-75
2022/09/25 03:40:32;;;;;;;152.63;52.50;;;;;;;13.65;100.00;100995.59;5062215;28;20549;-74
2022/09/25 03:43:28;;;;;;;124.18;46.13;;;;;;;13.62;100.00;100987.75;5077400;28;20024;-75
2022/09/25 03:46:15;;;;;;;119.35;49.22;;;;;;;13.72;100.00;100990.28;5076708;28;20032;-75
2022/09/25 03:49:12;;;;;;;114.68;47.10;;;;;;;13.65;100.00;100989.31;5071966;28;20073;-74
2022/09/25 03:51:55;;;;;;;129.00;50.42;;;;;;;13.83;100.00;100998.06;5067690;28;20493;-74
2022/09/25 03:55:10;;;;;;;150.50;53.43;;;;;;;13.81;100.00;100992.78;5074212;28;20090;-75
2022/09/25 03:58:01;;;;;;;;;;;;;;;;;;;;;
2022/09/25 04:00:56;;;;;;;126.13;47.45;;;;;;;13.68;100.00;100984.34;5001750;28;20038;-74
2022/09/25 04:03:33;;;;;;;145.05;55.25;;;;;;;13.65;100.00;100990.16;4996540;28;20393;-75
2022/09/25 04:06:17;;;;;;;169.07;56.55;;;;;;;13.75;100.00;100985.31;5076153;28;20055;-75
2022/09/25 04:09:24;;;;;;;161.43;53.58;;;;;;;13.87;99.84;100982.22;5071272;28;20039;-75
2022/09/25 04:12:23;;;;;;;154.10;50.50;;;;;;;13.80;100.00;100982.09;5076607;28;20028;-75
2022/09/25 04:15:18;;;;;;;171.75;58.42;;;;;;;13.79;100.00;100981.25;5075346;28;20020;-73
2022/09/25 04:18:03;;;;;;;258.20;73.47;;;;;;;13.80;100.00;100977.50;5075328;28;20082;-75
2022/09/25 04:21:22;;;;;;;226.68;69.35;;;;;;;13.85;100.00;100969.66;5027397;28;20025;-75
2022/09/25 04:26:43;;;;;;;184.35;61.83;;;;;;;13.91;99.91;100983.59;5093042;28;20047;-75
2022/09/25 04:29:14;;;;;;;212.23;65.97;;;;;;;13.91;99.82;100978.13;5075539;28;20035;-75
2022/09/25 04:34:44;;;;;;;148.40;55.47;;;;;;;13.93;100.00;100981.53;5093478;28;20077;-75
2022/09/25 04:37:12;;;;;;;177.82;59.45;;;;;;;13.84;100.00;100981.56;5074949;28;20020;-74
2022/09/25 04:39:38;;;;;;;150.70;54.00;;;;;;;13.81;100.00;100979.19;5075242;28;20049;-73
2022/09/25 04:42:07;;;;;;;144.35;53.03;;;;;;;13.80;100.00;100977.50;5074739;28;20024;-75
2022/09/25 04:44:33;;;;;;;177.85;58.63;;;;;;;13.82;100.00;100991.78;5074491;28;20016;-75
2022/09/25 04:47:03;;;;;;;195.32;60.22;;;;;;;13.90;100.00;100984.63;5074158;28;20024;-73
2022/09/25 04:49:28;;;;;;;201.68;63.25;;;;;;;13.94;100.00;100983.22;5074520;28;20055;-75
2022/09/25 04:51:55;;;;;;;195.57;59.00;;;;;;;13.85;99.91;100980.53;5074112;28;20048;-75
2022/09/25 04:54:21;;;;;;;139.10;53.42;;;;;;;13.93;99.90;100981.53;5074657;28;20032;-74
2022/09/25 04:56:49;;;;;;;234.20;66.18;;;;;;;13.90;100.00;100990.06;5073037;28;20030;-75
2022/09/25 04:59:18;;;;;;;142.23;54.35;;;;;;;14.01;100.00;100979.59;5073754;28;20115;-75
2022/09/25 05:01:49;;;;;;;209.27;62.63;;;;;;;13.99;99.71;100983.53;5090313;28;20059;-75
2022/09/25 05:04:18;;;;;;;148.32;51.42;;;;;;;14.01;99.54;100979.59;5071574;28;20032;-76
2022/09/25 05:06:44;;;;;;;177.95;53.88;;;;;;;13.98;99.41;100974.53;5074282;28;20016;-74
2022/09/25 05:09:12;;;;;;;183.13;55.00;;;;;;;13.99;99.57;100978.09;5073715;28;20089;-76
2022/09/25 05:11:41;;;;;;;141.80;50.25;;;;;;;13.90;99.73;100981.88;5073811;28;20417;-75
2022/09/25 05:14:07;;;;;;;143.40;50.30;;;;;;;13.84;99.59;100984.28;5073571;28;20027;-76
2022/09/25 05:16:38;;;;;;;118.28;46.80;;;;;;;13.84;99.95;100978.84;5074295;28;20066;-76
2022/09/25 05:19:03;;;;;;;134.55;48.40;;;;;;;13.82;100.00;100974.59;5072481;28;20061;-76
2022/09/25 05:21:32;;;;;;;130.88;49.00;;;;;;;13.90;99.89;100982.75;5073601;28;20012;-75
2022/09/25 05:24:04;;;;;;;101.32;44.65;;;;;;;14.00;99.68;100977.06;5073980;28;20142;-76
2022/09/25 05:26:29;;;;;;;136.43;48.78;;;;;;;13.93;99.66;100992.41;5073258;28;20020;-74
2022/09/25 05:28:55;;;;;;;129.50;47.80;;;;;;;13.94;99.81;100984.06;5073996;28;20027;-76
2022/09/25 05:31:24;;;;;;;115.78;46.65;;;;;;;13.96;99.50;100992.06;5065076;28;20019;-76
2022/09/25 05:33:53;;;;;;;112.53;44.42;;;;;;;13.78;99.92;100995.88;5071742;28;20035;-75
2022/09/25 05:36:21;;;;;;;76.72;37.50;;;;;;;13.90;99.90;100987.34;5073420;28;20019;-75
2022/09/25 05:38:47;;;;;;;107.80;44.00;;;;;;;13.76;100.00;100992.50;5076058;28;20027;-75
2022/09/25 05:41:12;;;;;;;84.65;40.20;;;;;;;13.78;100.00;100987.72;5073037;28;20104;-76
2022/09/25 05:43:43;;;;;;;116.47;47.30;;;;;;;13.88;100.00;100981.19;5073566;28;20042;-76
2022/09/25 05:46:12;;;;;;;135.70;51.47;;;;;;;13.91;100.00;100978.13;5073398;28;20023;-75
2022/09/25 05:48:38;;;;;;;106.15;44.90;;;;;;;13.86;100.00;100981.38;5073531;28;20020;-76
2022/09/25 05:51:10;;;;;;;106.88;44.25;;;;;;;13.80;100.00;100976.66;5073327;28;20039;-76
2022/09/25 05:53:36;;;;;;;105.10;47.20;;;;;;;13.87;100.00;100982.22;5073230;28;20504;-76
2022/09/25 05:56:06;;;;;;;130.55;49.10;;;;;;;13.78;100.00;100985.00;5073221;28;20478;-75
2022/09/25 05:58:37;;;;;;;117.88;49.05;;;;;;;13.92;100.00;100974.38;5073538;28;20123;-76
2022/09/25 06:01:05;;;;;;;144.82;53.42;;;;;;;14.02;99.96;100977.75;5072862;28;20024;-75
2022/09/25 06:03:30;;;;;;;140.68;53.45;;;;;;;14.01;99.50;100978.75;5073403;28;20020;-75
2022/09/25 06:06:02;;;;;;;121.93;49.67;;;;;;;14.07;99.50;100973.44;5073031;28;20073;-76
2022/09/25 06:08:33;;;;;;;104.38;48.03;;;;;;;13.99;99.65;100975.38;5073101;28;20490;-75
2022/09/25 06:11:04;;;;;;;129.02;49.85;;;;;;;13.92;99.54;100974.38;5073001;28;20042;-75
2022/09/25 06:13:33;;;;;;;119.50;51.78;;;;;;;14.02;100.00;100969.59;5072973;28;20020;-75
2022/09/25 06:16:04;;;;;;;129.57;52.35;;;;;;;14.13;99.45;100971.88;5073703;28;20013;-76
2022/09/25 06:18:32;;;;;;;117.88;47.60;;;;;;;13.99;99.46;100970.78;5072876;28;20028;-75
2022/09/25 06:21:04;;;;;;;97.20;45.47;;;;;;;14.20;99.03;100961.97;5073046;28;20039;-76
2022/09/25 06:23:35;;;;;;;108.30;45.47;;;;;;;14.10;99.07;100966.81;5073198;28;20016;-75
2022/09/25 06:26:05;;;;;;;123.43;49.08;;;;;;;14.02;99.28;100969.59;5072897;28;20073;-76
2022/09/25 06:28:40;;;;;;;119.05;51.45;;;;;;;14.08;99.69;100968.84;5072979;28;20107;-75
2022/09/25 06:31:23;;;;;;;130.95;50.88;;;;;;;14.20;99.33;100964.69;5067092;28;20040;-75
2022/09/25 06:33:50;;;;;;;128.65;47.75;;;;;;;13.99;99.32;100975.38;5077938;28;20031;-76
2022/09/25 06:36:31;;;;;;;100.40;44.60;;;;;;;14.04;99.00;100972.97;5070108;28;20081;-75
2022/09/25 06:39:19;;;;;;;104.45;44.15;;;;;;;13.90;99.40;100971.00;5075182;28;20096;-75
2022/09/25 06:41:47;;;;;;;110.07;48.90;;;;;;;13.81;100.00;100973.75;5073647;28;20031;-75
2022/09/25 06:44:13;;;;;;;124.35;49.63;;;;;;;13.89;99.39;100969.28;5071652;28;20027;-74
2022/09/25 06:46:48;;;;;;;87.90;43.25;;;;;;;13.90;99.96;100971.84;5077911;28;20016;-75
2022/09/25 06:49:16;;;;;;;96.82;44.75;;;;;;;13.85;99.60;100969.66;5077210;28;20052;-75
2022/09/25 06:51:44;;;;;;;95.40;43.97;;;;;;;13.94;99.73;100975.03;5076953;28;20109;-74
2022/09/25 06:54:12;;;;;;;110.53;47.92;;;;;;;14.03;99.43;100965.84;5076544;28;20045;-75
2022/09/25 06:56:38;;;;;;;97.05;44.13;;;;;;;14.10;99.61;100966.81;5075623;28;20524;-75
2022/09/25 06:59:04;;;;;;;113.65;51.22;;;;;;;14.04;100.00;100967.53;5076547;28;20173;-75
2022/09/25 07:01:38;;;;;;;101.18;46.25;;;;;;;13.87;100.00;100965.91;5077571;28;20020;-75
2022/09/25 07:04:03;;;;;;;100.45;43.58;;;;;;;13.74;100.00;100970.03;5076370;28;20031;-74
2022/09/25 07:06:30;;;;;;;106.45;46.60;;;;;;;13.78;100.00;100974.09;5076078;28;20016;-74
2022/09/25 07:08:58;;;;;;;105.55;44.65;;;;;;;13.75;100.00;100971.72;5076225;28;20028;-74
2022/09/25 07:11:34;;;;;;;113.80;48.60;;;;;;;13.73;100.00;100971.06;5076452;28;20106;-75
2022/09/25 07:14:02;;;;;;;102.05;42.67;;;;;;;13.71;100.00;100978.56;5076707;28;20020;-74
2022/09/25 07:16:33;;;;;;;101.28;42.72;;;;;;;13.74;100.00;100977.34;5076262;28;20187;-74
2022/09/25 07:19:02;;;;;;;126.00;50.38;;;;;;;13.72;100.00;100972.09;5075697;28;20133;-73
2022/09/25 07:21:31;;;;;;;113.32;48.63;;;;;;;13.72;100.00;100982.97;5075989;28;20383;-75
2022/09/25 07:23:57;;;;;;;119.55;49.88;;;;;;;13.70;100.00;100982.31;5076283;28;20024;-75
2022/09/25 07:26:33;;;;;;;122.28;50.67;;;;;;;13.87;100.00;100979.50;5075970;28;20034;-75
2022/09/25 07:29:07;;;;;;;102.55;46.28;;;;;;;13.95;100.00;100979.47;5076066;28;20119;-74
2022/09/25 07:31:34;;;;;;;105.50;46.00;;;;;;;14.06;100.00;100984.53;5069468;28;20016;-74
2022/09/25 07:34:11;;;;;;;127.60;52.45;;;;;;;13.89;100.00;100985.59;5076211;28;20058;-75
2022/09/25 07:36:38;;;;;;;114.28;49.88;;;;;;;13.92;100.00;100980.69;5075926;28;20024;-74
2022/09/25 07:39:06;;;;;;;120.63;52.17;;;;;;;14.00;100.00;100983.34;5080207;28;20024;-74
2022/09/25 07:41:32;;;;;;;124.93;54.47;;;;;;;13.97;100.00;100977.44;5075571;28;20035;-75
2022/09/25 07:44:06;;;;;;;102.82;46.65;;;;;;;14.02;100.00;100986.75;5077110;28;20044;-75
2022/09/25 07:46:42;;;;;;;97.32;45.17;;;;;;;13.88;100.00;100989.38;5075890;28;20061;-75
2022/09/25 07:49:11;;;;;;;75.78;37.80;;;;;;;13.81;100.00;100991.94;5076114;28;20055;-72
2022/09/25 07:51:41;;;;;;;76.97;38.17;;;;;;;14.01;100.00;100984.19;5075672;28;20020;-74
2022/09/25 07:54:09;;;;;;;88.97;42.63;;;;;;;13.98;100.00;100990.00;5074461;28;20024;-74
2022/09/25 07:56:41;;;;;;;71.25;37.00;;;;;;;14.06;100.00;100984.53;5074348;28;20043;-75
2022/09/25 07:59:07;;;;;;;73.63;40.78;;;;;;;14.11;100.00;100985.69;5075395;28;20044;-74
2022/09/25 08:01:33;;;;;;;73.53;36.50;;;;;;;14.04;100.00;100981.97;5074977;28;20016;-75
2022/09/25 08:04:01;;;;;;;76.07;38.67;;;;;;;14.05;100.00;100980.09;5074824;28;20119;-75
2022/09/25 08:06:26;;;;;;;64.55;33.78;;;;;;;13.98;100.00;100984.56;5074808;28;20011;-75
2022/09/25 08:08:59;;;;;;;64.68;33.90;;;;;;;13.89;100.00;100985.59;5074658;28;20027;-75
2022/09/25 08:11:32;;;;;;;56.33;29.90;;;;;;;13.99;100.00;100986.25;5075200;28;20058;-75
2022/09/25 08:13:58;;;;;;;58.80;30.85;;;;;;;14.01;100.00;100987.75;5074399;28;20162;-74
2022/09/25 08:16:32;;;;;;;80.18;40.70;;;;;;;14.04;100.00;100986.56;5070644;28;20099;-74
2022/09/25 08:18:57;;;;;;;53.40;28.30;;;;;;;13.97;100.00;100988.31;5075107;28;20052;-74
2022/09/25 08:21:25;;;;;;;47.67;26.15;;;;;;;14.06;100.00;100987.25;5068081;28;20047;-75
2022/09/25 08:23:55;;;;;;;44.83;23.33;;;;;;;13.96;100.00;100986.63;5073919;28;20042;-74
2022/09/25 08:26:30;;;;;;;55.83;25.63;;;;;;;13.98;100.00;100990.84;5075401;28;20077;-73
2022/09/25 08:29:18;;;;;;;36.65;20.95;;;;;;;13.88;100.00;100990.22;5071728;28;20058;-68
2022/09/25 08:31:46;;;;;;;46.75;22.85;;;;;;;13.85;100.00;100985.97;5070089;28;20023;-70
2022/09/25 08:34:13;;;;;;;37.65;20.65;;;;;;;13.90;100.00;100990.06;5072988;28;20031;-69
2022/09/25 08:36:39;;;;;;;40.92;21.77;;;;;;;13.86;100.00;100986.81;5073146;28;20107;-68
2022/09/25 08:39:05;;;;;;;33.95;19.08;;;;;;;13.95;100.00;100990.34;5069006;28;20035;-67
2022/09/25 08:41:44;;;;;;;32.40;16.02;;;;;;;13.82;100.00;100980.91;5072783;28;20024;-68
2022/09/25 08:44:37;;;;;;;40.75;19.90;;;;;;;13.75;100.00;100992.66;5072916;28;20495;-67
2022/09/25 08:50:19;;;;;;;26.60;13.43;;;;;;;13.57;100.00;100987.47;5090453;28;20031;-68
2022/09/25 08:52:50;;;;;;;32.83;15.90;;;;;;;13.74;100.00;100989.06;5072643;28;20024;-68
2022/09/25 08:58:20;;;;;;;31.13;18.15;;;;;;;13.45;100.00;101002.44;5090418;28;20077;-67
2022/09/25 09:01:01;;;;;;;40.13;19.85;;;;;;;13.38;100.00;100998.72;5066638;23;20037;-67
2022/09/25 09:03:50;;;;;;;53.38;24.10;;;;;;;13.48;100.00;100999.38;5069841;28;20471;-67
2022/09/25 09:06:26;;;;;;;48.95;23.17;;;;;;;13.53;100.00;100996.97;5061394;28;20149;-68
2022/09/25 09:09:05;;;;;;;50.85;25.05;;;;;;;13.53;100.00;100996.97;5069240;28;20039;-67
2022/09/25 09:11:42;;;;;;;41.25;21.25;;;;;;;13.45;100.00;100999.72;5084617;28;20102;-68
2022/09/25 09:14:15;;;;;;;49.10;25.33;;;;;;;13.49;100.00;100991.03;5089861;28;20111;-66
2022/09/25 09:16:45;;;;;;;48.85;25.08;;;;;;;13.56;100.00;100992.06;5088859;28;20024;-68
2022/09/25 09:19:13;;;;;;;46.17;25.65;;;;;;;13.43;100.00;100990.88;5090899;28;20028;-69
2022/09/25 09:22:07;;;;;;;40.95;24.13;;;;;;;13.44;100.00;100992.59;5091974;28;20020;-68
2022/09/25 09:24:44;;;;;;;45.85;25.20;;;;;;;13.46;100.00;101002.28;5091036;28;20023;-69
2022/09/25 09:27:35;;;;;;;43.88;25.17;;;;;;;13.50;100.00;100994.63;5089489;28;20023;-68
2022/09/25 09:30:00;;;;;;;38.53;22.23;;;;;;;13.56;100.00;100996.63;5090426;28;20059;-68
2022/09/25 09:44:37;;;;;;;;;;;;;;;;;;;;;
2022/09/25 09:47:38;;;;;;;33.80;18.50;;;;;;;13.33;100.00;100990.25;4951786;28;20030;-74
2022/09/25 09:50:19;;;;;;;24.08;15.73;;;;;;;13.15;100.00;100993.97;5071680;28;20099;-73
2022/09/25 09:53:02;;;;;;;28.77;17.95;;;;;;;13.05;100.00;100998.75;5078079;22;20036;-71
2022/09/25 09:55:40;;;;;;;35.80;20.92;;;;;;;13.15;100.00;100999.41;5057297;28;20028;-71
2022/09/25 09:58:16;;;;;;;32.88;19.13;;;;;;;13.20;100.00;100996.19;5056117;28;20060;-71
2022/09/25 10:00:43;;;;;;;44.22;22.80;;;;;;;13.29;100.00;100993.28;5073000;28;20089;-72
2022/09/25 10:03:19;;;;;;;38.65;21.95;;;;;;;13.45;100.00;100994.28;5084508;28;20039;-73
2022/09/25 10:05:50;;;;;;;34.88;20.58;;;;;;;13.40;100.00;100993.97;5069049;28;20110;-73
2022/09/25 10:08:16;;;;;;;43.63;24.15;;;;;;;13.26;100.00;101001.81;5073211;28;20027;-72
2022/09/25 10:10:44;;;;;;;42.67;23.08;;;;;;;13.23;100.00;100991.25;5086866;28;20024;-75
2022/09/25 10:13:24;;;;;;;38.92;22.23;;;;;;;13.31;100.00;100998.56;5072554;28;20016;-73
2022/09/25 10:16:00;;;;;;;29.42;19.58;;;;;;;13.11;100.00;100987.19;5072998;28;20114;-73
2022/09/25 10:18:45;;;;;;;38.97;22.67;;;;;;;13.15;100.00;100988.53;5071837;28;20020;-72
2022/09/25 10:21:17;;;;;;;38.50;26.95;;;;;;;13.11;100.00;100989.06;5072605;28;20020;-71
2022/09/25 10:23:52;;;;;;;45.80;27.02;;;;;;;13.23;100.00;100991.25;5072825;28;20020;-72
2022/09/25 10:26:23;;;;;;;45.15;25.80;;;;;;;13.17;100.00;100991.94;5068632;28;20063;-71
2022/09/25 10:28:49;;;;;;;40.97;24.38;;;;;;;13.24;100.00;100986.69;5071899;28;20206;-72
2022/09/25 10:31:17;;;;;;;40.85;24.13;;;;;;;13.34;100.00;100981.91;5072566;28;20551;-73
2022/09/25 10:33:58;;;;;;;45.63;28.20;;;;;;;13.16;100.00;100990.22;5072018;28;20053;-72
2022/09/25 10:36:36;;;;;;;52.78;31.23;;;;;;;13.33;100.00;100992.97;5071936;28;20020;-70
2022/09/25 10:39:04;;;;;;;50.30;31.05;;;;;;;13.33;100.00;100987.53;5073426;28;20032;-71
2022/09/25 10:41:41;;;;;;;45.00;25.33;;;;;;;13.23;100.00;100985.81;5073707;28;20080;-71
2022/09/25 10:44:19;;;;;;;49.15;26.60;;;;;;;13.40;100.00;100974.91;5073769;28;20031;-71
2022/09/25 10:52:18;;;;;;;55.08;28.35;;;;;;;13.38;100.00;100985.13;5091771;28;20031;-72
2022/09/25 10:54:44;;;;;;;55.55;25.70;;;;;;;13.33;100.00;100976.63;5074001;28;20460;-71
2022/09/25 10:57:49;;;;;;;38.92;19.38;;;;;;;13.17;100.00;100980.19;5091482;28;20111;-70
2022/09/25 11:00:23;;;;;;;35.05;21.52;;;;;;;13.23;100.00;100979.53;5019820;28;20070;-70
2022/09/25 11:02:57;;;;;;;32.47;19.33;;;;;;;13.18;100.00;100982.75;5073340;28;20024;-71
2022/09/25 11:05:29;;;;;;;34.08;20.27;;;;;;;13.15;100.00;100983.09;5073496;28;20016;-71
2022/09/25 11:07:58;;;;;;;37.38;21.45;;;;;;;13.23;100.00;100985.81;5091289;28;20016;-71
2022/09/25 11:10:28;;;;;;;36.25;21.55;;;;;;;13.34;100.00;100978.34;5073674;28;20089;-71
2022/09/25 11:12:55;;;;;;;31.58;18.60;;;;;;;13.30;100.00;100981.41;5073440;28;20020;-72
2022/09/25 11:15:25;;;;;;;35.33;20.67;;;;;;;13.34;100.00;100975.63;5073559;28;20078;-71
2022/09/25 11:17:55;;;;;;;42.33;20.25;;;;;;;13.02;100.00;100982.78;5073171;28;20020;-71
2022/09/25 11:20:29;;;;;;;37.25;19.80;;;;;;;13.21;100.00;100982.44;5073355;28;20059;-71
2022/09/25 11:23:28;;;;;;;34.50;19.27;;;;;;;13.16;100.00;100978.50;5073499;28;20046;-70
2022/09/25 11:26:05;;;;;;;35.13;20.13;;;;;;;13.26;100.00;100977.34;5073245;28;20118;-70
2022/09/25 11:28:34;;;;;;;42.00;20.33;;;;;;;13.16;100.00;100979.34;5092899;28;20028;-71
2022/09/25 11:31:05;;;;;;;33.53;16.33;;;;;;;13.20;100.00;100980.75;5077125;28;20541;-71
2022/09/25 11:34:01;;;;;;;35.40;19.58;;;;;;;12.94;100.00;100980.91;5076943;28;20027;-70
2022/09/25 11:36:33;;;;;;;29.85;16.95;;;;;;;12.87;100.00;100979.06;5077207;28;20089;-71
2022/09/25 11:42:32;;;;;;;35.88;18.75;;;;;;;13.09;100.00;100983.78;5094972;28;20020;-71
2022/09/25 11:45:07;;;;;;;44.55;24.25;;;;;;;12.98;100.00;100981.44;5045302;28;20097;-71
2022/09/25 11:47:43;;;;;;;39.35;23.00;;;;;;;12.91;100.00;100985.81;5094614;28;20488;-71
2022/09/25 11:50:16;;;;;;;35.13;22.35;;;;;;;13.04;100.00;100981.59;5094710;28;20110;-72
2022/09/25 11:53:13;;;;;;;38.05;19.48;;;;;;;13.13;100.00;100979.69;5076480;28;20063;-71
2022/09/25 11:56:05;;;;;;;33.70;20.33;;;;;;;13.22;100.00;100978.69;5094322;28;20075;-72
2022/09/25 11:58:48;;;;;;;39.72;18.98;;;;;;;13.03;100.00;100973.59;5095154;28;20038;-72
2022/09/25 12:01:37;;;;;;;39.97;20.23;;;;;;;13.05;100.00;100977.00;5077000;28;20126;-72
2022/09/25 12:04:32;;;;;;;37.33;18.23;;;;;;;13.08;100.00;100982.09;5076630;28;20031;-73
2022/09/25 12:07:12;;;;;;;31.63;16.30;;;;;;;12.98;100.00;100976.84;5071307;28;20043;-72